createdAt,value
2022-09-26T00:00:09.643Z,418.70
2022-09-26T00:05:09.770Z,401.80
2022-09-26T00:10:09.096Z,401.70
2022-09-26T00:15:10.400Z,418.20
2022-09-26T00:20:07.704Z,408.50
2022-09-26T00:25:07.022Z,414.80
2022-09-26T00:30:06.348Z,406.20
2022-09-26T00:35:05.658Z,414.30
2022-09-26T00:40:04.958Z,419.90
2022-09-26T00:45:06.275Z,415.20
2022-09-26T00:50:04.550Z,425.10
2022-09-26T00:55:03.852Z,410.40
2022-09-26T01:00:03.178Z,397.10
2022-09-26T01:05:00.493Z,365.50
2022-09-26T01:10:01.833Z,374.30
2022-09-26T01:15:01.179Z,388.20
2022-09-26T01:19:59.465Z,406.90
2022-09-26T01:24:59.781Z,410.30
2022-09-26T01:29:59.066Z,413.60
2022-09-26T01:34:57.360Z,399.60
2022-09-26T01:39:58.649Z,434.70
2022-09-26T01:44:55.919Z,446.50
2022-09-26T01:49:55.214Z,409.60
2022-09-26T01:54:54.532Z,420.40
2022-09-26T01:59:54.843Z,421.10
2022-09-26T02:04:53.145Z,420.40
2022-09-26T02:09:53.446Z,409.00
2022-09-26T02:14:51.723Z,410.60
2022-09-26T02:19:51.005Z,406.60
2022-09-26T02:24:51.305Z,413.90
2022-09-26T02:29:49.589Z,414.60
2022-09-26T02:34:48.896Z,402.40
2022-09-26T02:39:48.211Z,402.40
2022-09-26T02:44:47.525Z,406.90
2022-09-26T02:49:46.835Z,406.90
2022-09-26T02:54:48.126Z,384.90
2022-09-26T02:59:45.471Z,371.90
2022-09-26T03:04:44.629Z,369.20
2022-09-26T03:09:45.738Z,369.20
2022-09-26T03:14:43.038Z,369.20
2022-09-26T03:19:42.347Z,367.30
2022-09-26T03:24:43.647Z,364.90
2022-09-26T03:29:40.930Z,363.10
2022-09-26T03:34:40.216Z,376.80
2022-09-26T03:39:39.507Z,421.30
2022-09-26T03:44:38.811Z,417.60
2022-09-26T03:49:39.105Z,417.60
2022-09-26T03:54:37.429Z,417.60
2022-09-26T03:59:36.720Z,417.60
2022-09-26T04:04:37.021Z,417.60
2022-09-26T04:09:34.322Z,417.60
2022-09-26T04:14:34.640Z,417.60
2022-09-26T04:19:35.953Z,417.60
2022-09-26T04:24:33.264Z,417.60
2022-09-26T04:29:32.367Z,417.60
2022-09-26T04:34:31.673Z,417.60
2022-09-26T04:39:31.040Z,417.60
2022-09-26T04:44:32.160Z,417.60
2022-09-26T04:49:29.490Z,417.60
2022-09-26T04:54:28.815Z,417.60
2022-09-26T04:59:29.160Z,417.60
2022-09-26T05:04:27.963Z,417.60
2022-09-26T05:09:26.733Z,417.60
2022-09-26T05:14:25.857Z,417.60
2022-09-26T05:19:25.209Z,417.60
2022-09-26T05:24:25.539Z,417.60
2022-09-26T05:29:23.845Z,417.60
2022-09-26T05:34:25.140Z,420.10
2022-09-26T05:39:24.442Z,446.70
2022-09-26T05:44:21.747Z,404.00
2022-09-26T05:49:22.153Z,430.30
2022-09-26T05:54:20.264Z,401.70
2022-09-26T05:59:19.561Z,420.80
2022-09-26T06:04:18.855Z,399.50
2022-09-26T06:09:21.279Z,402.30
2022-09-26T06:14:17.363Z,474.90
2022-09-26T06:19:22.788Z,423.00
2022-09-26T06:24:15.848Z,425.20
2022-09-26T06:29:18.257Z,434.70
2022-09-26T06:34:14.335Z,398.90
2022-09-26T06:39:13.675Z,427.10
2022-09-26T06:44:14.976Z,433.50
2022-09-26T06:49:12.311Z,482.50
2022-09-26T06:54:11.447Z,383.70
2022-09-26T06:59:14.612Z,436.60
2022-09-26T07:04:10.977Z,492.90
2022-09-26T07:09:12.264Z,418.70
2022-09-26T07:14:08.419Z,454.70
2022-09-26T07:19:08.732Z,445.40
2022-09-26T07:24:08.008Z,422.00
2022-09-26T07:29:06.357Z,416.20
2022-09-26T07:34:05.501Z,383.80
2022-09-26T07:39:05.843Z,417.90
2022-09-26T07:44:58.884Z,393.20
2022-09-26T07:49:04.255Z,408.50
2022-09-26T07:54:02.569Z,408.50
2022-09-26T07:59:02.858Z,53.50
2022-09-26T08:04:02.183Z,53.50
2022-09-26T08:09:02.502Z,53.50
2022-09-26T08:13:59.814Z,53.50
2022-09-26T08:19:01.120Z,53.50
2022-09-26T08:23:58.411Z,53.50
2022-09-26T08:28:58.727Z,53.50
2022-09-26T08:33:57.004Z,53.50
2022-09-26T08:38:55.349Z,53.50
2022-09-26T08:43:56.497Z,53.50
2022-09-26T08:48:54.781Z,53.50
2022-09-26T08:53:53.069Z,53.50
2022-09-26T08:58:53.367Z,53.50
2022-09-26T09:03:52.693Z,53.50
2022-09-26T09:08:52.030Z,53.50
2022-09-26T09:13:51.194Z,53.50
2022-09-26T09:18:50.455Z,53.50
2022-09-26T09:23:49.580Z,53.50
2022-09-26T09:28:48.907Z,53.50
2022-09-26T09:33:48.247Z,53.50
2022-09-26T09:38:48.376Z,149.50
2022-09-26T09:43:46.692Z,149.50
2022-09-26T09:48:46.036Z,149.50
2022-09-26T09:53:45.361Z,149.50
2022-09-26T09:58:45.655Z,368.90
2022-09-26T10:03:43.942Z,387.30
2022-09-26T10:08:43.249Z,425.90
2022-09-26T10:13:42.537Z,401.10
2022-09-26T10:18:49.485Z,410.80
2022-09-26T10:23:40.961Z,442.40
2022-09-26T10:28:41.374Z,443.80
2022-09-26T10:33:40.525Z,396.40
2022-09-26T10:38:38.653Z,423.80
2022-09-26T10:43:38.803Z,421.00
2022-09-26T10:48:38.129Z,408.10
2022-09-26T10:53:36.433Z,384.30
2022-09-26T10:58:36.751Z,424.60
2022-09-26T11:03:37.154Z,404.90
2022-09-26T11:08:34.276Z,408.40
2022-09-26T11:13:33.587Z,401.80
2022-09-26T11:18:31.899Z,406.10
2022-09-26T11:23:33.256Z,412.80
2022-09-26T11:28:34.456Z,383.00
2022-09-26T11:33:30.564Z,434.40
2022-09-26T11:38:29.867Z,415.00
2022-09-26T11:43:30.199Z,392.90
2022-09-26T11:48:29.521Z,430.00
2022-09-26T11:53:29.840Z,367.50
2022-09-26T11:58:28.127Z,396.10
2022-09-26T12:03:26.560Z,404.00
2022-09-26T12:08:25.741Z,418.30
2022-09-26T12:13:28.067Z,400.70
2022-09-26T12:18:26.368Z,400.70
2022-09-26T12:23:23.661Z,402.40
2022-09-26T12:28:23.141Z,407.50
2022-09-26T12:33:23.285Z,419.40
2022-09-26T12:38:22.420Z,406.40
2022-09-26T12:43:21.552Z,406.20
2022-09-26T12:48:19.691Z,348.90
2022-09-26T12:53:18.820Z,398.70
2022-09-26T12:58:18.972Z,404.80
2022-09-26T13:03:18.386Z,406.20
2022-09-26T13:08:16.623Z,416.00
2022-09-26T13:13:16.742Z,400.60
2022-09-26T13:18:17.094Z,412.50
2022-09-26T13:23:14.222Z,404.70
2022-09-26T13:28:13.581Z,430.60
2022-09-26T13:33:12.716Z,412.50
2022-09-26T13:38:13.034Z,404.80
2022-09-26T13:43:12.455Z,413.40
2022-09-26T13:48:10.569Z,424.80
2022-09-26T13:53:08.733Z,400.00
2022-09-26T13:58:08.870Z,410.90
2022-09-26T14:03:08.259Z,403.60
2022-09-26T14:08:08.373Z,400.20
2022-09-26T14:13:06.738Z,416.60
2022-09-26T14:18:04.881Z,399.20
2022-09-26T14:23:07.223Z,419.40
2022-09-26T14:28:05.573Z,421.90
2022-09-26T14:33:03.873Z,400.60
2022-09-26T14:38:03.188Z,391.00
2022-09-26T14:43:02.497Z,431.20
2022-09-26T14:48:01.817Z,425.50
2022-09-26T14:53:01.114Z,411.30
2022-09-26T14:58:00.431Z,416.80
2022-09-26T15:03:01.301Z,412.80
2022-09-26T15:07:58.835Z,434.20
2022-09-26T15:12:57.957Z,405.90
2022-09-26T15:17:57.285Z,409.80
2022-09-26T15:22:58.598Z,399.00
2022-09-26T15:27:56.917Z,402.60
2022-09-26T15:32:56.312Z,410.20
2022-09-26T15:37:54.426Z,423.10
2022-09-26T15:42:55.793Z,414.90
2022-09-26T15:47:53.092Z,387.30
2022-09-26T15:52:52.415Z,406.40
2022-09-26T15:57:54.734Z,412.10
2022-09-26T16:02:51.162Z,385.90
2022-09-26T16:07:50.335Z,425.50
2022-09-26T16:12:49.452Z,405.80
2022-09-26T16:17:49.472Z,403.10
2022-09-26T16:22:47.838Z,380.10
2022-09-26T16:27:48.168Z,393.40
2022-09-26T16:32:46.450Z,419.00
2022-09-26T16:37:44.780Z,413.80
2022-09-26T16:42:45.078Z,415.70
2022-09-26T16:47:44.362Z,407.60
2022-09-26T16:52:44.669Z,427.90
2022-09-26T16:57:42.815Z,425.20
2022-09-26T17:02:42.266Z,408.10
2022-09-26T17:07:42.513Z,430.20
2022-09-26T17:12:41.671Z,428.10
2022-09-26T17:17:40.799Z,410.90
2022-09-26T17:22:39.140Z,405.60
2022-09-26T17:27:38.286Z,405.60
2022-09-26T17:32:38.455Z,398.90
2022-09-26T17:37:37.575Z,408.20
2022-09-26T17:42:34.911Z,421.70
2022-09-26T17:47:36.249Z,403.60
2022-09-26T17:52:34.642Z,403.20
2022-09-26T17:57:37.107Z,406.90
2022-09-26T18:02:34.006Z,407.10
2022-09-26T18:07:32.167Z,388.40
2022-09-26T18:12:32.538Z,483.20
2022-09-26T18:17:31.641Z,457.70
2022-09-26T18:22:31.271Z,426.50
2022-09-26T18:27:30.550Z,397.40
2022-09-26T18:32:29.939Z,413.00
2022-09-26T18:37:27.840Z,425.80
2022-09-26T18:42:27.201Z,421.70
2022-09-26T18:47:26.205Z,395.20
2022-09-26T18:52:25.312Z,381.70
2022-09-26T18:57:24.681Z,437.80
2022-09-26T19:02:24.334Z,449.10
2022-09-26T19:07:23.132Z,406.30
2022-09-26T19:12:24.342Z,409.00
2022-09-26T19:17:22.745Z,414.60
2022-09-26T19:22:21.638Z,426.40
2022-09-26T19:27:20.775Z,424.60
2022-09-26T19:32:19.883Z,433.70
2022-09-26T19:37:19.254Z,439.50
2022-09-26T19:42:18.633Z,426.60
2022-09-26T19:47:16.657Z,408.30
2022-09-26T19:52:16.861Z,405.10
2022-09-26T19:57:15.976Z,405.10
2022-09-26T20:02:15.255Z,389.00
2022-09-26T20:07:13.374Z,400.30
2022-09-26T20:12:13.700Z,400.30
2022-09-26T20:17:13.182Z,400.30
2022-09-26T20:22:10.383Z,446.20
2022-09-26T20:27:10.521Z,420.00
2022-09-26T20:32:14.735Z,423.10
2022-09-26T20:37:09.815Z,431.30
2022-09-26T20:42:10.129Z,466.50
2022-09-26T20:47:08.503Z,355.60
2022-09-26T20:52:05.617Z,571.90
2022-09-26T20:57:07.933Z,494.40
2022-09-26T21:02:06.261Z,399.10
2022-09-26T21:07:05.527Z,435.70
2022-09-26T21:12:03.838Z,366.70
2022-09-26T21:17:04.257Z,241.20
2022-09-26T21:22:02.906Z,197.20
2022-09-26T21:27:03.651Z,210.00
2022-09-26T21:32:01.951Z,417.10
2022-09-26T21:37:02.292Z,399.10
2022-09-26T21:41:59.386Z,371.70
2022-09-26T21:46:57.697Z,401.20
2022-09-26T21:51:59.068Z,420.30
2022-09-26T21:56:57.161Z,400.50
2022-09-26T22:01:56.591Z,395.90
2022-09-26T22:06:55.731Z,377.70
2022-09-26T22:11:56.044Z,345.60
2022-09-26T22:16:54.419Z,341.40
2022-09-26T22:21:54.539Z,363.20
2022-09-26T22:26:53.834Z,369.40
2022-09-26T22:31:52.127Z,369.40
2022-09-26T22:36:51.395Z,421.60
2022-09-26T22:41:50.704Z,413.30
2022-09-26T22:46:50.025Z,434.10
2022-09-26T22:51:49.347Z,439.00
2022-09-26T22:56:48.659Z,426.90
2022-09-26T23:01:48.078Z,424.40
2022-09-26T23:06:47.238Z,421.50
2022-09-26T23:11:46.566Z,425.30
2022-09-26T23:16:45.951Z,425.40
2022-09-26T23:21:45.079Z,401.40
2022-09-26T23:26:45.448Z,425.40
2022-09-26T23:31:43.561Z,395.10
2022-09-26T23:36:42.893Z,328.10
2022-09-26T23:41:43.214Z,422.10
2022-09-26T23:46:42.520Z,416.60
2022-09-26T23:51:40.835Z,430.00
2022-09-26T23:56:40.938Z,437.90
